Time;durP1;ratioP1;P1;durP2;ratioP2;P2;SDS_P1;SDS_P2;PMS_P1;PMS_P2;Temp;Humidity;BMP_temperature;BMP_pressure;BME280_temperature;BME280_humidity;BME280_pressure;Samples;Min_cycle;Max_cycle;Signal;HPM_P1;HPM_P2
2023/10/05 00:01:30;;;;;;;8.30;2.40;;;10.70;99.90;;;;;;4950097;28;20136;-68
2023/10/05 00:03:56;;;;;;;8.68;2.58;;;10.70;99.90;;;;;;4950951;28;20043;-69
2023/10/05 00:06:24;;;;;;;4.88;2.63;;;10.70;99.90;;;;;;4951822;29;20035;-68
2023/10/05 00:08:54;;;;;;;4.20;1.60;;;10.70;99.90;;;;;;4943503;29;20119;-68
2023/10/05 00:11:29;;;;;;;5.38;2.05;;;10.80;99.90;;;;;;4934786;29;20039;-68
2023/10/05 00:14:10;;;;;;;8.75;1.77;;;10.70;99.90;;;;;;4945790;28;20046;-68
2023/10/05 00:16:37;;;;;;;8.27;2.25;;;10.60;99.90;;;;;;4952383;28;20038;-68
2023/10/05 00:19:12;;;;;;;7.72;2.40;;;10.60;99.90;;;;;;4949202;28;20028;-68
2023/10/05 00:21:55;;;;;;;6.97;1.73;;;10.60;99.90;;;;;;4952785;29;20066;-68
2023/10/05 00:24:35;;;;;;;3.40;1.92;;;10.60;99.90;;;;;;4948572;28;20027;-68
2023/10/05 00:27:03;;;;;;;4.05;2.35;;;10.60;99.90;;;;;;4962108;28;20050;-68
2023/10/05 00:29:40;;;;;;;7.40;2.08;;;10.60;99.90;;;;;;4934970;29;20396;-69
2023/10/05 00:32:14;;;;;;;1.95;1.15;;;10.50;99.90;;;;;;4954011;29;20034;-68
2023/10/05 00:34:42;;;;;;;11.52;1.70;;;10.50;99.90;;;;;;4946599;29;20118;-68
2023/10/05 00:37:08;;;;;;;10.55;2.47;;;10.50;99.90;;;;;;4953439;28;20023;-68
2023/10/05 00:39:36;;;;;;;5.68;2.10;;;10.50;99.90;;;;;;4947497;28;20055;-68
2023/10/05 00:44:30;;;;;;;2.92;1.63;;;10.40;99.90;;;;;;4946001;28;20032;-68
2023/10/05 00:47:00;;;;;;;5.63;2.92;;;10.50;99.90;;;;;;4953260;29;20035;-68
2023/10/05 00:49:41;;;;;;;8.23;2.35;;;10.50;99.90;;;;;;4946003;28;20042;-68
2023/10/05 00:52:15;;;;;;;3.83;2.20;;;10.40;99.90;;;;;;4939131;29;20094;-68
2023/10/05 00:54:51;;;;;;;8.68;2.08;;;10.40;99.90;;;;;;4946554;28;20063;-68
2023/10/05 00:57:22;;;;;;;5.22;1.95;;;10.30;99.90;;;;;;4953189;28;20035;-68
2023/10/05 01:03:00;;;;;;;7.60;2.65;;;10.40;99.90;;;;;;4953111;28;20041;-68
2023/10/05 01:05:25;;;;;;;6.93;1.98;;;10.40;99.90;;;;;;4946715;28;20046;-68
2023/10/05 01:07:56;;;;;;;7.25;1.60;;;10.40;99.90;;;;;;4981191;28;20726;-68
2023/10/05 01:10:40;;;;;;;9.45;2.90;;;10.40;99.90;;;;;;4958263;28;20036;-68
2023/10/05 01:13:33;;;;;;;7.18;2.30;;;10.40;99.90;;;;;;4926131;29;20031;-69
2023/10/05 01:16:03;;;;;;;7.30;2.63;;;10.50;99.90;;;;;;4947278;29;20030;-68
2023/10/05 01:18:31;;;;;;;5.60;2.13;;;10.40;99.90;;;;;;4951834;28;20043;-68
2023/10/05 01:20:58;;;;;;;8.95;2.30;;;10.50;99.90;;;;;;4964721;28;20039;-68
2023/10/05 01:23:34;;;;;;;4.95;2.35;;;10.60;99.90;;;;;;4944423;28;20414;-69
2023/10/05 01:26:00;;;;;;;4.93;1.83;;;10.50;99.90;;;;;;4939323;29;20035;-69
2023/10/05 01:28:26;;;;;;;10.68;1.92;;;10.50;99.90;;;;;;4952506;28;20395;-69
2023/10/05 01:30:52;;;;;;;13.75;2.45;;;10.40;99.90;;;;;;4945179;28;20031;-69
2023/10/05 01:33:18;;;;;;;10.82;2.97;;;10.40;99.90;;;;;;4936929;29;20023;-69
2023/10/05 01:35:46;;;;;;;6.55;2.78;;;10.40;99.90;;;;;;4961517;28;20364;-69
2023/10/05 01:38:12;;;;;;;6.90;1.83;;;10.40;99.90;;;;;;4968732;28;20457;-68
2023/10/05 01:40:38;;;;;;;7.15;3.05;;;10.40;99.90;;;;;;4924395;29;20032;-69
2023/10/05 01:43:04;;;;;;;5.30;2.22;;;10.50;99.90;;;;;;4936935;29;20114;-69
2023/10/05 01:45:33;;;;;;;3.83;1.88;;;10.50;99.90;;;;;;4944731;28;20066;-69
2023/10/05 01:48:11;;;;;;;9.50;1.90;;;10.50;99.90;;;;;;4952245;28;20521;-69
2023/10/05 01:50:39;;;;;;;6.03;3.00;;;10.40;99.90;;;;;;4937758;28;20032;-69
2023/10/05 01:53:17;;;;;;;5.57;1.92;;;10.40;99.90;;;;;;4936773;29;20031;-69
2023/10/05 01:55:53;;;;;;;5.55;1.88;;;10.40;99.90;;;;;;4945853;28;20031;-68
2023/10/05 01:58:22;;;;;;;3.67;2.10;;;10.40;99.90;;;;;;4937638;29;20106;-69
2023/10/05 02:00:49;;;;;;;8.00;2.10;;;10.40;99.90;;;;;;4936623;29;20042;-69
2023/10/05 02:03:17;;;;;;;5.50;2.50;;;10.40;99.90;;;;;;4936193;29;20727;-69
2023/10/05 02:05:44;;;;;;;5.85;1.63;;;10.40;99.90;;;;;;4928899;29;20392;-69
2023/10/05 02:08:12;;;;;;;5.22;2.58;;;10.40;99.90;;;;;;4936488;29;20042;-69
2023/10/05 02:10:46;;;;;;;7.20;2.05;;;10.40;99.90;;;;;;4942588;28;20118;-69
2023/10/05 02:13:12;;;;;;;4.50;2.13;;;10.30;99.90;;;;;;4940613;29;20023;-69
2023/10/05 02:15:42;;;;;;;3.85;2.17;;;10.30;99.90;;;;;;4949054;28;20031;-69
2023/10/05 02:18:26;;;;;;;9.48;2.28;;;10.30;99.90;;;;;;4953220;28;20054;-69
2023/10/05 02:23:35;;;;;;;3.72;1.73;;;10.30;99.90;;;;;;4966697;28;20067;-69
2023/10/05 02:26:04;;;;;;;2.75;1.58;;;10.30;99.90;;;;;;4938904;29;20548;-69
2023/10/05 02:28:33;;;;;;;4.63;2.10;;;10.30;99.90;;;;;;4950856;28;20043;-70
2023/10/05 02:31:00;;;;;;;3.28;1.95;;;10.30;99.90;;;;;;4967511;28;20111;-69
2023/10/05 02:33:28;;;;;;;2.70;1.95;;;10.20;99.90;;;;;;4954252;28;20055;-68
2023/10/05 02:35:59;;;;;;;6.88;2.50;;;10.30;99.90;;;;;;4948391;28;20403;-69
2023/10/05 02:38:25;;;;;;;8.25;2.60;;;10.30;99.90;;;;;;4947644;28;20039;-68
2023/10/05 02:41:03;;;;;;;8.05;2.70;;;10.30;99.90;;;;;;4948198;29;20035;-68
2023/10/05 02:43:29;;;;;;;9.80;2.83;;;10.30;99.90;;;;;;4953637;29;20034;-68
2023/10/05 02:46:08;;;;;;;17.67;2.15;;;10.20;99.90;;;;;;4968735;28;20074;-68
2023/10/05 02:48:35;;;;;;;5.38;2.28;;;10.30;99.90;;;;;;4952958;28;20057;-69
2023/10/05 02:51:05;;;;;;;4.75;2.05;;;10.30;99.90;;;;;;4940691;29;20035;-68
2023/10/05 02:53:41;;;;;;;4.55;1.27;;;10.30;99.90;;;;;;4953293;28;20110;-68
2023/10/05 02:56:22;;;;;;;7.10;2.10;;;10.30;99.90;;;;;;4963864;28;20034;-68
2023/10/05 02:58:54;;;;;;;4.35;1.88;;;10.30;99.90;;;;;;4950790;28;20043;-68
2023/10/05 03:01:21;;;;;;;6.85;2.67;;;10.30;99.90;;;;;;4943456;29;20035;-68
2023/10/05 03:03:48;;;;;;;6.50;1.98;;;10.30;99.90;;;;;;4932236;29;20026;-69
2023/10/05 03:06:15;;;;;;;3.28;1.85;;;10.30;99.90;;;;;;4944665;29;20079;-68
2023/10/05 03:08:42;;;;;;;13.40;2.00;;;10.30;99.90;;;;;;4950282;28;20031;-69
2023/10/05 03:11:08;;;;;;;4.38;2.08;;;10.30;99.90;;;;;;4935977;29;20035;-68
2023/10/05 03:13:38;;;;;;;4.30;2.20;;;10.30;99.90;;;;;;4950044;28;20431;-69
2023/10/05 03:16:09;;;;;;;3.70;1.92;;;10.30;99.90;;;;;;4930990;29;20419;-69
2023/10/05 03:18:41;;;;;;;6.20;3.08;;;10.30;99.90;;;;;;4939029;29;20468;-69
2023/10/05 03:21:13;;;;;;;;;;;10.20;99.90;;;;;;4941870;28;20035;-67
2023/10/05 03:23:44;;;;;;;3.22;1.75;;;10.30;99.90;;;;;;4938490;29;19910;-68
2023/10/05 03:26:13;;;;;;;5.95;2.42;;;10.30;99.90;;;;;;4949478;28;20062;-68
2023/10/05 03:28:41;;;;;;;3.88;1.60;;;10.30;99.90;;;;;;4931496;29;20443;-68
2023/10/05 03:31:37;;;;;;;5.03;2.65;;;10.30;99.90;;;;;;4949037;28;20436;-68
2023/10/05 03:34:06;;;;;;;4.38;1.73;;;10.30;99.90;;;;;;4955387;29;20033;-68
2023/10/05 03:36:33;;;;;;;6.72;1.98;;;10.30;99.90;;;;;;4942900;29;20019;-68
2023/10/05 03:39:03;;;;;;;9.20;1.27;;;10.30;99.90;;;;;;4956094;28;20526;-68
2023/10/05 03:41:29;;;;;;;9.43;2.05;;;10.30;99.90;;;;;;4950167;28;20526;-68
2023/10/05 03:44:01;;;;;;;3.13;1.33;;;10.30;99.90;;;;;;4946178;28;20035;-69
2023/10/05 03:46:27;;;;;;;3.80;1.58;;;10.40;99.90;;;;;;4947281;28;20057;-68
2023/10/05 03:49:00;;;;;;;4.05;1.98;;;10.40;99.90;;;;;;4951390;28;20744;-68
2023/10/05 03:51:26;;;;;;;3.20;1.58;;;10.40;99.90;;;;;;4946925;28;20043;-69
2023/10/05 03:53:52;;;;;;;6.07;1.95;;;10.40;99.90;;;;;;4946273;29;20126;-68
2023/10/05 03:56:20;;;;;;;3.03;1.60;;;10.50;99.90;;;;;;4946266;28;20033;-68
2023/10/05 03:58:47;;;;;;;3.00;1.48;;;10.50;99.90;;;;;;4937835;28;20019;-69
2023/10/05 04:01:14;;;;;;;3.20;1.33;;;10.60;99.90;;;;;;4939297;28;20047;-68
2023/10/05 04:03:46;;;;;;;2.50;1.38;;;10.60;99.90;;;;;;4932969;29;20043;-70
2023/10/05 04:06:20;;;;;;;2.70;2.22;;;10.70;99.90;;;;;;4919806;29;20055;-69
2023/10/05 04:08:55;;;;;;;5.95;2.45;;;10.70;99.90;;;;;;4940554;29;20139;-68
2023/10/05 04:11:21;;;;;;;3.85;1.70;;;10.60;99.90;;;;;;4943053;28;20121;-68
2023/10/05 04:13:49;;;;;;;4.13;1.85;;;10.60;99.90;;;;;;4935563;29;20027;-68
2023/10/05 04:16:21;;;;;;;7.90;1.42;;;10.50;99.90;;;;;;4936759;29;20035;-68
2023/10/05 04:18:49;;;;;;;2.65;1.45;;;10.50;99.90;;;;;;4949768;29;20159;-68
2023/10/05 04:21:18;;;;;;;6.95;1.98;;;10.40;99.90;;;;;;4943924;29;20039;-68
2023/10/05 04:23:49;;;;;;;3.20;1.63;;;10.40;99.90;;;;;;4942673;29;20046;-68
2023/10/05 04:26:20;;;;;;;3.47;1.05;;;10.40;99.90;;;;;;4937512;29;20039;-68
2023/10/05 04:28:52;;;;;;;12.48;2.50;;;10.40;99.90;;;;;;4951712;28;20039;-68
2023/10/05 04:31:25;;;;;;;2.50;1.15;;;10.40;99.90;;;;;;4944889;28;20512;-68
2023/10/05 04:33:55;;;;;;;5.72;1.85;;;10.30;99.90;;;;;;4942853;28;20032;-68
2023/10/05 04:36:23;;;;;;;8.30;1.30;;;10.30;99.90;;;;;;4936736;29;20032;-68
2023/10/05 04:38:53;;;;;;;3.92;1.42;;;10.40;99.90;;;;;;4941346;28;20059;-68
2023/10/05 04:41:24;;;;;;;4.60;1.83;;;10.30;99.90;;;;;;4942744;28;20034;-68
2023/10/05 04:43:50;;;;;;;2.22;1.23;;;10.30;99.90;;;;;;4946122;28;20035;-68
2023/10/05 04:46:19;;;;;;;3.15;1.70;;;10.30;99.90;;;;;;4939269;28;20045;-70
2023/10/05 04:49:27;;;;;;;10.77;2.17;;;10.40;99.90;;;;;;4943935;28;20040;-69
2023/10/05 04:51:39;;;;;;;2.85;2.05;;;10.40;99.90;;;;;;4940875;28;20063;-69
2023/10/05 04:54:07;;;;;;;12.00;1.90;;;10.40;99.90;;;;;;4942327;28;20649;-69
2023/10/05 05:07:09;;;;;;;4.00;2.03;;;10.40;99.90;;;;;;4941686;28;20031;-69
2023/10/05 05:09:41;;;;;;;3.22;1.55;;;10.40;99.90;;;;;;4950377;28;20042;-68
2023/10/05 05:12:20;;;;;;;5.65;2.17;;;10.40;99.90;;;;;;4949167;28;20046;-69
2023/10/05 05:14:52;;;;;;;2.72;1.33;;;10.40;99.90;;;;;;4949013;28;21665;-68
2023/10/05 05:17:19;;;;;;;2.20;1.38;;;10.40;99.90;;;;;;4948924;29;20035;-68
2023/10/05 05:19:46;;;;;;;6.20;2.55;;;10.40;99.90;;;;;;4948358;28;20062;-68
2023/10/05 05:22:13;;;;;;;6.03;1.75;;;10.30;99.90;;;;;;4929496;29;20035;-68
2023/10/05 05:24:44;;;;;;;6.65;2.00;;;10.30;99.90;;;;;;4931183;29;20035;-69
2023/10/05 05:29:49;;;;;;;5.63;1.63;;;10.30;99.90;;;;;;4951166;28;20097;-68
2023/10/05 05:32:15;;;;;;;1.80;1.33;;;10.30;99.90;;;;;;4942194;28;20062;-68
2023/10/05 05:34:42;;;;;;;7.40;2.10;;;10.30;99.90;;;;;;4947184;28;20070;-54
2023/10/05 05:37:25;;;;;;;6.38;2.63;;;10.20;99.90;;;;;;4949211;28;20083;-56
2023/10/05 05:39:53;;;;;;;3.15;1.80;;;10.20;99.90;;;;;;4941302;28;20102;-54
2023/10/05 05:42:19;;;;;;;4.45;1.70;;;10.30;99.90;;;;;;4951656;28;20032;-56
2023/10/05 05:44:45;;;;;;;6.30;1.50;;;10.40;99.90;;;;;;4947056;28;20039;-56
2023/10/05 05:47:14;;;;;;;3.33;1.20;;;10.40;99.90;;;;;;4951274;28;20423;-49
2023/10/05 05:49:46;;;;;;;5.65;1.45;;;10.40;99.90;;;;;;4947264;28;20038;-53
2023/10/05 05:52:17;;;;;;;4.07;1.73;;;10.50;99.90;;;;;;4951736;28;20038;-54
2023/10/05 05:54:46;;;;;;;5.90;1.83;;;10.40;99.90;;;;;;4949230;28;20483;-56
2023/10/05 05:57:19;;;;;;;3.92;1.92;;;10.50;99.90;;;;;;4947440;28;20428;-54
2023/10/05 05:59:44;;;;;;;2.45;1.42;;;10.50;99.90;;;;;;4946111;28;20456;-71
2023/10/05 06:02:13;;;;;;;2.95;1.58;;;10.60;99.90;;;;;;4952842;28;20078;-67
2023/10/05 06:04:40;;;;;;;8.00;2.42;;;10.60;99.90;;;;;;4946998;28;20031;-67
2023/10/05 06:07:13;;;;;;;3.95;1.67;;;10.70;99.90;;;;;;4935535;29;20037;-68
2023/10/05 06:09:42;;;;;;;2.75;1.20;;;10.70;99.90;;;;;;4947548;28;20033;-68
2023/10/05 06:12:10;;;;;;;5.18;1.50;;;10.70;99.90;;;;;;4947438;28;20083;-67
2023/10/05 06:14:40;;;;;;;3.55;1.35;;;10.70;99.90;;;;;;4946727;28;20066;-66
2023/10/05 06:17:10;;;;;;;10.82;1.67;;;10.70;99.90;;;;;;4951239;28;20027;-67
2023/10/05 06:19:36;;;;;;;3.03;1.63;;;10.70;99.90;;;;;;4932858;28;20931;-66
2023/10/05 06:22:05;;;;;;;8.40;1.40;;;10.70;99.90;;;;;;4952186;28;20038;-66
2023/10/05 06:24:31;;;;;;;5.22;2.20;;;10.80;99.90;;;;;;4949012;28;20451;-66
2023/10/05 06:27:00;;;;;;;4.95;2.17;;;10.80;99.90;;;;;;4952888;28;20062;-66
2023/10/05 06:29:26;;;;;;;2.55;1.50;;;10.80;99.90;;;;;;4951447;28;20023;-67
2023/10/05 06:32:25;;;;;;;6.43;1.67;;;10.80;99.90;;;;;;4952803;28;20043;-66
2023/10/05 06:34:52;;;;;;;3.30;1.50;;;10.70;99.90;;;;;;4951144;28;20125;-66
2023/10/05 06:37:17;;;;;;;4.43;1.40;;;10.60;99.90;;;;;;4952873;28;20388;-67
2023/10/05 06:39:43;;;;;;;3.97;1.98;;;10.70;99.90;;;;;;4949697;28;20115;-66
2023/10/05 06:42:11;;;;;;;2.67;1.20;;;10.70;99.90;;;;;;4953469;28;20034;-66
2023/10/05 06:44:39;;;;;;;3.28;1.45;;;10.70;99.90;;;;;;4949799;28;20118;-66
2023/10/05 06:47:05;;;;;;;4.97;2.17;;;10.70;99.90;;;;;;4952761;28;20039;-66
2023/10/05 06:49:30;;;;;;;9.18;2.03;;;10.70;99.90;;;;;;4950753;28;20031;-67
2023/10/05 06:51:57;;;;;;;3.78;1.85;;;10.70;99.90;;;;;;4952768;28;20179;-67
2023/10/05 06:54:23;;;;;;;6.43;2.33;;;10.70;99.90;;;;;;4951480;28;20042;-68
2023/10/05 06:56:49;;;;;;;4.60;2.10;;;10.70;99.90;;;;;;4944130;28;20439;-68
2023/10/05 06:59:15;;;;;;;4.88;2.58;;;10.80;99.90;;;;;;4952631;29;20027;-68
2023/10/05 07:01:41;;;;;;;5.07;1.30;;;10.80;99.90;;;;;;4951343;28;20039;-68
2023/10/05 07:04:08;;;;;;;3.78;2.03;;;10.80;99.90;;;;;;4952417;28;20023;-68
2023/10/05 07:06:34;;;;;;;4.55;1.88;;;10.80;99.90;;;;;;4949724;28;20039;-68
2023/10/05 07:08:59;;;;;;;2.78;1.58;;;10.90;99.90;;;;;;4952233;29;20035;-68
2023/10/05 07:11:26;;;;;;;5.65;1.88;;;10.90;99.90;;;;;;4948779;28;20094;-67
2023/10/05 07:13:51;;;;;;;3.22;1.27;;;10.90;99.90;;;;;;4950850;28;20102;-66
2023/10/05 07:16:17;;;;;;;5.80;2.25;;;11.00;99.90;;;;;;4950402;28;20126;-66
2023/10/05 07:18:43;;;;;;;4.50;2.17;;;11.00;99.90;;;;;;4942177;28;20122;-66
2023/10/05 07:21:09;;;;;;;2.95;1.38;;;11.10;99.90;;;;;;4967040;28;20023;-66
2023/10/05 07:23:39;;;;;;;2.22;1.10;;;11.10;99.90;;;;;;4955650;28;20035;-66
2023/10/05 07:26:06;;;;;;;3.03;1.75;;;11.20;99.90;;;;;;4949465;28;20147;-66
2023/10/05 07:28:36;;;;;;;4.35;2.17;;;11.20;99.90;;;;;;4955711;28;20475;-66
2023/10/05 07:31:05;;;;;;;12.18;1.40;;;11.30;99.90;;;;;;4932794;29;20039;-66
2023/10/05 07:33:33;;;;;;;7.97;1.73;;;11.20;99.90;;;;;;4948729;28;20031;-66
2023/10/05 07:36:00;;;;;;;6.25;1.92;;;11.30;99.90;;;;;;4946935;28;20408;-66
2023/10/05 07:38:28;;;;;;;4.53;2.10;;;11.40;99.90;;;;;;4948177;28;20034;-66
2023/10/05 07:40:55;;;;;;;6.38;2.10;;;11.40;99.90;;;;;;4953636;28;20503;-67
2023/10/05 07:43:21;;;;;;;3.67;1.90;;;11.40;99.90;;;;;;4954234;28;20487;-67
2023/10/05 07:45:48;;;;;;;4.45;1.80;;;11.50;99.90;;;;;;4944776;28;20051;-66
2023/10/05 07:48:14;;;;;;;5.85;1.90;;;11.30;99.90;;;;;;4954075;28;20053;-66
2023/10/05 07:50:40;;;;;;;4.32;1.95;;;11.40;99.90;;;;;;4951788;28;20198;-67
2023/10/05 07:53:05;;;;;;;5.25;1.77;;;11.50;99.90;;;;;;4952108;28;20086;-67
2023/10/05 07:55:31;;;;;;;8.90;2.10;;;11.50;99.90;;;;;;4952648;28;20046;-66
2023/10/05 07:57:57;;;;;;;3.90;1.58;;;11.50;99.90;;;;;;4954074;28;20031;-66
2023/10/05 08:00:23;;;;;;;13.32;2.10;;;11.50;99.90;;;;;;4952273;28;20122;-67
2023/10/05 08:02:49;;;;;;;15.63;1.90;;;11.60;99.90;;;;;;4953347;28;20035;-67
2023/10/05 08:05:15;;;;;;;20.08;2.95;;;11.60;99.90;;;;;;4953162;28;20047;-66
2023/10/05 08:07:42;;;;;;;4.32;1.60;;;11.80;99.90;;;;;;4954680;28;20431;-67
2023/10/05 08:10:15;;;;;;;7.97;1.58;;;11.70;99.90;;;;;;4951570;28;20069;-67
2023/10/05 08:12:45;;;;;;;7.63;2.53;;;11.80;99.90;;;;;;4952290;28;20032;-68
2023/10/05 08:15:17;;;;;;;9.55;1.88;;;11.80;99.90;;;;;;4944845;28;20035;-67
2023/10/05 08:17:45;;;;;;;6.15;2.15;;;11.80;99.90;;;;;;4952323;28;20039;-67
2023/10/05 08:20:11;;;;;;;3.70;1.48;;;11.90;99.90;;;;;;4953976;28;20035;-67
2023/10/05 08:22:38;;;;;;;7.53;1.88;;;11.80;99.90;;;;;;4952997;28;20090;-67
2023/10/05 08:25:13;;;;;;;10.35;2.13;;;11.90;99.90;;;;;;4953619;28;20035;-69
2023/10/05 08:27:42;;;;;;;10.63;2.28;;;11.80;99.90;;;;;;4952637;28;20530;-69
2023/10/05 08:30:10;;;;;;;5.00;1.98;;;11.90;99.90;;;;;;4947927;28;20071;-67
2023/10/05 08:32:37;;;;;;;5.30;2.63;;;11.90;99.90;;;;;;4967279;28;20110;-67
2023/10/05 08:35:13;;;;;;;8.70;2.38;;;12.00;99.90;;;;;;4953657;28;20023;-68
2023/10/05 08:37:47;;;;;;;6.13;2.58;;;12.10;99.90;;;;;;4948540;28;20028;-67
2023/10/05 08:40:37;;;;;;;6.50;2.67;;;12.30;99.90;;;;;;4944518;28;20030;-68
2023/10/05 08:43:16;;;;;;;6.72;1.90;;;12.40;99.90;;;;;;4954364;28;20028;-66
2023/10/05 08:45:47;;;;;;;7.55;1.83;;;12.50;99.90;;;;;;4950734;28;20031;-66
2023/10/05 08:48:34;;;;;;;3.42;1.75;;;12.80;99.90;;;;;;4953427;28;20035;-66
2023/10/05 08:51:12;;;;;;;8.80;1.77;;;13.00;99.90;;;;;;4950429;28;20034;-67
2023/10/05 08:53:50;;;;;;;18.70;2.72;;;13.10;99.90;;;;;;4954139;28;20495;-67
2023/10/05 08:56:16;;;;;;;12.35;2.17;;;13.20;99.90;;;;;;4949597;28;20042;-66
2023/10/05 08:58:45;;;;;;;11.18;2.60;;;13.20;99.90;;;;;;4952822;28;20031;-66
2023/10/05 09:01:35;;;;;;;5.40;2.10;;;13.40;99.90;;;;;;4950607;28;20027;-66
2023/10/05 09:07:16;;;;;;;4.00;1.88;;;13.60;99.90;;;;;;4950014;28;20027;-68
2023/10/05 09:09:54;;;;;;;9.05;2.42;;;13.80;99.90;;;;;;4952871;28;20047;-68
2023/10/05 09:12:41;;;;;;;9.93;2.72;;;13.80;99.90;;;;;;4952728;28;20500;-67
2023/10/05 09:18:42;;;;;;;6.40;2.65;;;14.30;99.90;;;;;;4952433;28;20031;-68
2023/10/05 09:20:50;;;;;;;8.32;2.92;;;14.40;99.90;;;;;;4942136;28;20062;-67
2023/10/05 09:23:25;;;;;;;8.40;2.08;;;14.60;99.90;;;;;;4967133;28;20547;-67
2023/10/05 09:25:50;;;;;;;8.35;2.10;;;14.70;99.90;;;;;;4947971;28;20055;-67
2023/10/05 09:28:45;;;;;;;8.52;2.50;;;14.70;99.90;;;;;;4953391;28;20447;-67
2023/10/05 09:31:11;;;;;;;7.80;2.22;;;14.80;99.90;;;;;;4943159;28;20035;-67
2023/10/05 09:33:53;;;;;;;5.10;1.98;;;15.10;99.90;;;;;;4997366;23;20045;-66
2023/10/05 09:36:19;;;;;;;8.77;2.53;;;15.40;99.90;;;;;;4980235;28;20027;-66
2023/10/05 09:38:46;;;;;;;7.10;2.00;;;15.40;99.90;;;;;;4985150;28;20054;-66
2023/10/05 09:41:17;;;;;;;7.45;2.30;;;15.50;99.90;;;;;;4986681;28;20027;-66
2023/10/05 09:43:44;;;;;;;4.45;1.90;;;15.70;99.90;;;;;;4971271;28;20054;-66
2023/10/05 09:46:11;;;;;;;6.65;2.78;;;15.50;99.90;;;;;;4997002;28;20180;-66
2023/10/05 09:48:38;;;;;;;3.85;2.00;;;15.70;99.90;;;;;;4966694;28;20053;-66
2023/10/05 09:51:10;;;;;;;4.25;2.05;;;15.90;99.90;;;;;;4970480;28;20118;-67
2023/10/05 09:53:39;;;;;;;11.60;3.42;;;16.30;99.90;;;;;;4971370;28;20125;-67
2023/10/05 09:56:06;;;;;;;7.93;2.63;;;15.80;99.90;;;;;;4979183;28;20043;-67
2023/10/05 09:58:34;;;;;;;8.15;2.17;;;16.00;99.90;;;;;;4971800;28;20052;-67
2023/10/05 10:01:10;;;;;;;9.60;2.75;;;16.30;99.90;;;;;;4966806;28;20119;-67
2023/10/05 10:03:39;;;;;;;4.65;2.20;;;16.60;99.90;;;;;;4970538;28;20582;-67
2023/10/05 10:06:11;;;;;;;2.80;1.40;;;16.60;99.90;;;;;;4976207;28;20476;-67
2023/10/05 10:08:54;;;;;;;8.90;2.33;;;16.80;99.90;;;;;;4969219;28;20045;-67
2023/10/05 10:11:24;;;;;;;6.53;1.98;;;16.70;99.90;;;;;;4974025;28;20491;-67
2023/10/05 10:14:00;;;;;;;6.43;1.77;;;16.80;99.90;;;;;;4970327;28;20061;-67
2023/10/05 10:16:28;;;;;;;6.32;2.22;;;16.90;99.90;;;;;;4984829;28;20655;-67
2023/10/05 10:19:23;;;;;;;7.32;2.00;;;16.90;99.90;;;;;;4984976;28;20080;-66
2023/10/05 10:21:57;;;;;;;4.18;1.65;;;16.70;99.90;;;;;;4978173;28;20391;-67
2023/10/05 10:24:28;;;;;;;7.43;2.15;;;16.60;99.90;;;;;;4974909;28;20464;-67
2023/10/05 10:27:07;;;;;;;6.13;2.15;;;17.00;99.90;;;;;;4988112;28;20210;-67
2023/10/05 10:29:53;;;;;;;7.13;1.75;;;17.30;99.90;;;;;;4990533;28;20084;-69
2023/10/05 10:32:32;;;;;;;14.68;2.08;;;17.00;99.90;;;;;;4987975;28;20026;-67
2023/10/05 10:35:26;;;;;;;7.80;2.70;;;17.20;99.90;;;;;;4991499;28;20165;-67
2023/10/05 10:37:54;;;;;;;8.88;1.98;;;17.00;99.90;;;;;;4988995;28;20030;-66
2023/10/05 10:45:41;;;;;;;8.18;1.67;;;17.50;99.90;;;;;;4991017;28;20022;-66
2023/10/05 10:48:22;;;;;;;4.97;1.75;;;17.90;99.90;;;;;;4969227;28;20024;-66
2023/10/05 10:50:52;;;;;;;4.93;1.85;;;17.80;99.90;;;;;;4967700;28;20049;-66
2023/10/05 10:53:25;;;;;;;4.13;1.63;;;17.90;99.90;;;;;;4988932;28;20041;-66
2023/10/05 10:56:03;;;;;;;5.53;2.00;;;17.80;99.90;;;;;;4979631;28;20042;-67
2023/10/05 10:58:31;;;;;;;4.25;1.63;;;17.80;99.90;;;;;;4995342;28;20109;-66
2023/10/05 11:01:04;;;;;;;9.10;2.10;;;18.10;99.90;;;;;;4984953;28;20045;-67
2023/10/05 11:03:32;;;;;;;5.55;1.73;;;17.90;99.90;;;;;;4994901;28;20030;-66
2023/10/05 11:06:00;;;;;;;3.72;1.52;;;17.70;99.90;;;;;;4981595;28;20038;-67
2023/10/05 11:08:30;;;;;;;5.22;1.60;;;17.90;99.90;;;;;;4984028;28;20038;-67
2023/10/05 11:11:09;;;;;;;11.43;2.47;;;17.70;99.90;;;;;;4988995;28;20382;-68
2023/10/05 11:13:43;;;;;;;5.40;1.40;;;18.10;99.90;;;;;;4970693;28;20042;-67
2023/10/05 11:16:09;;;;;;;4.35;1.00;;;18.20;99.90;;;;;;4989667;28;20030;-67
2023/10/05 11:18:42;;;;;;;8.32;1.70;;;18.00;99.90;;;;;;4988372;28;20023;-67
2023/10/05 11:21:14;;;;;;;8.32;1.40;;;18.00;99.90;;;;;;4978714;28;20145;-67
2023/10/05 11:23:47;;;;;;;1.38;0.90;;;17.80;99.90;;;;;;4966472;28;20015;-66
2023/10/05 11:26:17;;;;;;;3.20;0.98;;;17.80;99.90;;;;;;4981645;28;20034;-66
2023/10/05 11:28:51;;;;;;;4.30;1.85;;;17.80;99.90;;;;;;4984926;28;20077;-66
2023/10/05 11:31:26;;;;;;;6.20;0.95;;;17.90;99.90;;;;;;4985283;28;20519;-66
2023/10/05 11:33:53;;;;;;;6.70;1.05;;;18.00;99.90;;;;;;4982757;28;20066;-67
2023/10/05 11:36:33;;;;;;;3.33;1.10;;;18.00;99.90;;;;;;4971278;28;20022;-67
2023/10/05 11:39:00;;;;;;;2.20;0.88;;;17.90;99.90;;;;;;4968491;28;20031;-66
2023/10/05 11:41:30;;;;;;;3.83;0.93;;;18.00;99.90;;;;;;4975611;28;20100;-68
2023/10/05 11:43:58;;;;;;;1.63;0.85;;;17.90;99.90;;;;;;4969924;28;20126;-71
2023/10/05 11:46:42;;;;;;;2.30;1.10;;;18.00;99.90;;;;;;4969650;28;20725;-66
2023/10/05 11:49:10;;;;;;;8.65;1.83;;;17.90;99.90;;;;;;4969663;28;20041;-66
2023/10/05 11:51:42;;;;;;;1.40;0.60;;;18.00;99.90;;;;;;4967951;28;20241;-66
2023/10/05 11:54:12;;;;;;;1.48;0.68;;;18.10;99.90;;;;;;4988415;28;20398;-66
2023/10/05 11:56:41;;;;;;;11.63;1.15;;;18.00;99.90;;;;;;4988425;28;20040;-66
2023/10/05 11:59:10;;;;;;;4.82;0.95;;;18.10;99.90;;;;;;4992092;28;20031;-66
2023/10/05 12:01:40;;;;;;;1.55;0.70;;;18.20;99.90;;;;;;4986927;28;20557;-66
2023/10/05 12:04:09;;;;;;;1.80;0.88;;;18.20;99.90;;;;;;4981833;28;20022;-66
2023/10/05 12:06:39;;;;;;;4.00;1.00;;;18.00;99.90;;;;;;4988071;28;20418;-66
2023/10/05 12:09:09;;;;;;;9.27;0.93;;;18.10;99.90;;;;;;4986954;28;20033;-66
2023/10/05 12:11:36;;;;;;;11.10;1.10;;;18.00;99.90;;;;;;4978620;28;20038;-67
2023/10/05 12:14:04;;;;;;;1.67;0.52;;;18.00;99.90;;;;;;4993786;28;20162;-66
2023/10/05 12:16:32;;;;;;;2.53;0.82;;;17.90;99.90;;;;;;4989482;28;20113;-67
2023/10/05 12:19:14;;;;;;;3.38;0.80;;;17.80;99.90;;;;;;4992117;28;20761;-67
2023/10/05 12:21:45;;;;;;;2.88;1.33;;;17.80;99.90;;;;;;4989673;28;20042;-67
2023/10/05 12:24:11;;;;;;;3.85;1.35;;;17.80;99.90;;;;;;4984984;28;20030;-67
2023/10/05 12:26:39;;;;;;;2.03;0.88;;;17.80;99.90;;;;;;4989146;28;20045;-67
2023/10/05 12:29:12;;;;;;;2.17;0.90;;;17.90;99.90;;;;;;4975670;28;20508;-67
2023/10/05 12:31:42;;;;;;;6.07;0.90;;;17.80;99.90;;;;;;4973800;28;20031;-67
2023/10/05 12:34:13;;;;;;;10.40;2.53;;;17.70;99.90;;;;;;4991634;28;20108;-66
2023/10/05 12:36:50;;;;;;;5.80;1.23;;;17.70;99.90;;;;;;4988461;28;20045;-67
2023/10/05 12:39:17;;;;;;;4.50;1.02;;;17.60;99.90;;;;;;4982635;28;20128;-67
2023/10/05 12:41:47;;;;;;;1.90;0.80;;;17.80;99.90;;;;;;4992524;28;20030;-67
2023/10/05 12:44:14;;;;;;;0.88;0.35;;;17.80;99.90;;;;;;4980416;28;20656;-67
2023/10/05 12:46:40;;;;;;;6.82;1.20;;;17.80;99.90;;;;;;4984452;28;20023;-67
2023/10/05 12:49:10;;;;;;;3.80;1.20;;;17.60;99.90;;;;;;4980115;28;20425;-66
2023/10/05 12:51:37;;;;;;;5.40;1.20;;;17.60;99.90;;;;;;4982742;28;20054;-67
2023/10/05 12:54:18;;;;;;;5.38;1.48;;;17.60;99.90;;;;;;4971596;28;20774;-66
2023/10/05 12:56:49;;;;;;;0.97;0.50;;;17.60;99.90;;;;;;4974640;28;20039;-68
2023/10/05 12:59:16;;;;;;;5.07;0.73;;;17.80;99.90;;;;;;4981976;28;20045;-67
2023/10/05 13:01:42;;;;;;;3.30;0.82;;;17.80;99.90;;;;;;4973952;28;20039;-66
2023/10/05 13:04:13;;;;;;;4.90;1.15;;;17.90;99.90;;;;;;4967417;28;20089;-67
2023/10/05 13:06:41;;;;;;;6.63;1.05;;;17.90;99.90;;;;;;4971411;28;20038;-68
2023/10/05 13:09:15;;;;;;;3.88;2.00;;;17.90;99.90;;;;;;4982298;28;20035;-67
2023/10/05 13:11:45;;;;;;;8.07;1.00;;;17.70;99.90;;;;;;4969055;28;20368;-67
2023/10/05 13:14:14;;;;;;;0.95;0.50;;;17.70;99.90;;;;;;4961160;28;20146;-67
2023/10/05 13:16:54;;;;;;;6.03;0.90;;;17.60;99.90;;;;;;4977905;28;20435;-68
2023/10/05 13:19:20;;;;;;;5.70;1.67;;;17.50;99.90;;;;;;4978895;28;20035;-71
2023/10/05 13:21:46;;;;;;;5.10;1.48;;;17.50;99.90;;;;;;4971495;28;20042;-70
2023/10/05 13:24:12;;;;;;;10.82;1.75;;;17.50;99.90;;;;;;4970389;28;20035;-68
2023/10/05 13:26:45;;;;;;;1.20;0.73;;;17.60;99.90;;;;;;4972841;28;20387;-68
2023/10/05 13:29:18;;;;;;;3.50;1.25;;;17.60;99.90;;;;;;4965999;28;20502;-68
2023/10/05 13:31:45;;;;;;;5.63;1.20;;;17.60;99.90;;;;;;4974573;28;20047;-66
2023/10/05 13:34:16;;;;;;;3.65;1.10;;;17.70;99.90;;;;;;4967609;28;20034;-67
2023/10/05 13:36:55;;;;;;;;;;;17.60;99.90;;;;;;4957363;28;20130;-68